createdAt,value
2022-07-29T00:01:50.727Z,18.40
2022-07-29T00:04:17.612Z,18.28
2022-07-29T00:06:44.423Z,18.27
2022-07-29T00:09:10.878Z,18.40
2022-07-29T00:11:37.290Z,18.49
2022-07-29T00:14:03.806Z,18.33
2022-07-29T00:16:30.399Z,18.43
2022-07-29T00:19:00.557Z,18.54
2022-07-29T00:21:28.490Z,18.70
2022-07-29T00:23:54.928Z,18.71
2022-07-29T00:26:21.362Z,18.58
2022-07-29T00:28:47.764Z,18.68
2022-07-29T00:31:14.253Z,18.78
2022-07-29T00:33:40.698Z,18.82
2022-07-29T00:36:07.223Z,18.78
2022-07-29T00:38:33.690Z,18.66
2022-07-29T00:41:00.150Z,18.59
2022-07-29T00:43:26.635Z,18.47
2022-07-29T00:45:53.435Z,18.51
2022-07-29T00:48:19.832Z,18.64
2022-07-29T00:50:46.248Z,18.55
2022-07-29T00:53:12.899Z,18.53
2022-07-29T00:55:39.312Z,18.34
2022-07-29T00:58:05.911Z,18.26
2022-07-29T01:00:32.379Z,18.15
2022-07-29T01:02:59.383Z,18.09
2022-07-29T01:05:50.751Z,18.07
2022-07-29T01:08:15.553Z,18.00
2022-07-29T01:10:42.879Z,17.94
2022-07-29T01:13:10.187Z,17.84
2022-07-29T01:15:49.026Z,17.79
2022-07-29T01:18:23.778Z,17.72
2022-07-29T01:21:26.654Z,17.73
2022-07-29T01:24:18.591Z,17.64
2022-07-29T01:27:11.579Z,17.43
2022-07-29T01:29:46.494Z,17.35
2022-07-29T01:32:28.755Z,17.32
2022-07-29T01:34:59.865Z,17.35
2022-07-29T01:37:27.434Z,17.33
2022-07-29T01:39:56.509Z,17.35
2022-07-29T01:42:32.764Z,17.20
2022-07-29T01:45:21.473Z,17.22
2022-07-29T01:47:59.443Z,17.27
2022-07-29T01:50:34.658Z,17.39
2022-07-29T01:53:03.557Z,17.50
2022-07-29T01:55:32.603Z,17.49
2022-07-29T01:58:00.084Z,17.20
2022-07-29T02:00:27.286Z,17.17
2022-07-29T02:02:54.859Z,17.22
2022-07-29T02:05:23.151Z,17.36
2022-07-29T02:07:50.512Z,17.43
2022-07-29T02:10:19.369Z,17.31
2022-07-29T02:12:52.543Z,17.15
2022-07-29T02:15:19.866Z,17.19
2022-07-29T02:17:50.426Z,17.37
2022-07-29T02:20:17.133Z,17.19
2022-07-29T02:22:45.171Z,17.29
2022-07-29T02:25:13.736Z,17.30
2022-07-29T02:27:41.504Z,16.99
2022-07-29T02:30:08.559Z,17.05
2022-07-29T02:32:39.053Z,16.86
2022-07-29T02:35:08.248Z,16.79
2022-07-29T02:37:34.933Z,16.60
2022-07-29T02:40:01.442Z,16.49
2022-07-29T02:42:28.881Z,16.64
2022-07-29T02:44:55.828Z,16.64
2022-07-29T02:47:31.746Z,16.61
2022-07-29T02:50:15.001Z,16.77
2022-07-29T02:52:45.415Z,16.69
2022-07-29T02:55:19.916Z,16.70
2022-07-29T02:57:57.514Z,16.74
2022-07-29T03:00:28.339Z,16.49
2022-07-29T03:02:57.262Z,15.87
2022-07-29T03:05:23.866Z,15.95
2022-07-29T03:07:56.570Z,16.24
2022-07-29T03:10:23.702Z,16.46
2022-07-29T03:12:50.653Z,16.57
2022-07-29T03:15:17.276Z,16.56
2022-07-29T03:17:44.208Z,16.41
2022-07-29T03:20:12.901Z,16.35
2022-07-29T03:22:44.317Z,16.31
2022-07-29T03:25:12.110Z,16.41
2022-07-29T03:27:38.533Z,16.45
2022-07-29T03:30:06.128Z,16.46
2022-07-29T03:32:35.471Z,16.35
2022-07-29T03:35:02.033Z,16.32
2022-07-29T03:37:28.607Z,16.19
2022-07-29T03:39:57.750Z,16.16
2022-07-29T03:42:34.086Z,16.00
2022-07-29T03:45:03.273Z,15.95
2022-07-29T03:47:50.120Z,16.14
2022-07-29T03:50:20.136Z,16.22
2022-07-29T03:52:46.783Z,15.86
2022-07-29T03:55:13.844Z,15.65
2022-07-29T03:57:41.632Z,15.85
2022-07-29T04:00:09.380Z,15.83
2022-07-29T04:02:36.794Z,15.85
2022-07-29T04:05:03.491Z,15.86
2022-07-29T04:07:30.665Z,15.83
2022-07-29T04:09:57.082Z,15.93
2022-07-29T04:12:23.934Z,16.19
2022-07-29T04:14:51.078Z,16.18
2022-07-29T04:17:17.819Z,16.22
2022-07-29T04:19:44.223Z,16.13
2022-07-29T04:22:10.686Z,16.23
2022-07-29T04:24:37.147Z,16.23
2022-07-29T04:27:03.587Z,16.32
2022-07-29T04:29:29.989Z,16.19
2022-07-29T04:31:56.413Z,16.33
2022-07-29T04:34:22.824Z,16.34
2022-07-29T04:36:54.470Z,16.34
2022-07-29T04:39:23.185Z,16.04
2022-07-29T04:41:51.032Z,16.16
2022-07-29T04:44:19.414Z,16.29
2022-07-29T04:46:46.327Z,16.30
2022-07-29T04:49:12.825Z,16.31
2022-07-29T04:51:39.365Z,16.17
2022-07-29T04:54:05.792Z,16.27
2022-07-29T04:56:32.285Z,16.32
2022-07-29T04:58:58.706Z,16.43
2022-07-29T05:01:25.182Z,16.37
2022-07-29T05:03:53.103Z,16.35
2022-07-29T05:06:21.348Z,16.34
2022-07-29T05:08:47.777Z,16.33
2022-07-29T05:11:16.946Z,16.53
2022-07-29T05:13:47.040Z,16.44
2022-07-29T05:16:14.348Z,16.43
2022-07-29T05:18:40.997Z,16.38
2022-07-29T05:21:07.512Z,16.53
2022-07-29T05:23:34.085Z,16.50
2022-07-29T05:26:00.516Z,16.49
2022-07-29T05:28:26.908Z,16.50
2022-07-29T05:30:53.409Z,16.51
2022-07-29T05:33:35.271Z,16.71
2022-07-29T05:36:09.193Z,16.58
2022-07-29T05:38:36.431Z,16.54
2022-07-29T05:41:03.144Z,16.66
2022-07-29T05:43:29.883Z,16.54
2022-07-29T05:45:56.946Z,16.66
2022-07-29T05:48:23.444Z,16.68
2022-07-29T05:50:49.907Z,16.67
2022-07-29T05:53:19.480Z,16.63
2022-07-29T05:55:47.437Z,16.66
2022-07-29T05:58:13.842Z,16.62
2022-07-29T06:00:40.815Z,16.62
2022-07-29T06:03:07.201Z,16.66
2022-07-29T06:05:33.647Z,16.89
2022-07-29T06:08:00.070Z,17.12
2022-07-29T06:10:26.922Z,17.15
2022-07-29T06:12:53.776Z,17.21
2022-07-29T06:15:20.365Z,17.26
2022-07-29T06:18:00.597Z,17.49
2022-07-29T06:20:30.968Z,17.54
2022-07-29T06:22:57.991Z,17.74
2022-07-29T06:25:24.459Z,17.57
2022-07-29T06:27:50.855Z,17.58
2022-07-29T06:30:17.274Z,17.66
2022-07-29T06:32:43.675Z,17.50
2022-07-29T06:35:37.847Z,17.59
2022-07-29T06:37:56.704Z,17.67
2022-07-29T06:40:44.811Z,17.82
2022-07-29T06:43:11.703Z,17.97
2022-07-29T06:45:39.441Z,18.14
2022-07-29T06:48:06.048Z,18.17
2022-07-29T06:50:32.656Z,18.40
2022-07-29T06:52:59.090Z,18.59
2022-07-29T06:55:25.697Z,18.70
2022-07-29T06:57:52.279Z,18.72
2022-07-29T07:00:18.728Z,18.75
2022-07-29T07:02:45.178Z,19.09
2022-07-29T07:05:11.646Z,19.06
2022-07-29T07:07:38.036Z,19.04
2022-07-29T07:10:04.829Z,19.11
2022-07-29T07:12:31.233Z,19.10
2022-07-29T07:14:57.641Z,19.34
2022-07-29T07:17:24.068Z,19.24
2022-07-29T07:19:50.460Z,19.22
2022-07-29T07:22:16.881Z,19.18
2022-07-29T07:24:43.281Z,19.35
2022-07-29T07:27:09.724Z,19.53
2022-07-29T07:29:36.329Z,19.43
2022-07-29T07:32:03.202Z,19.46
2022-07-29T07:34:30.975Z,19.57
2022-07-29T07:36:57.417Z,19.62
2022-07-29T07:39:23.830Z,19.43
2022-07-29T07:41:50.261Z,19.50
2022-07-29T07:44:17.216Z,19.73
2022-07-29T07:46:45.777Z,19.77
2022-07-29T07:49:12.472Z,20.03
2022-07-29T07:51:39.528Z,20.12
2022-07-29T07:54:05.967Z,20.31
2022-07-29T07:56:35.388Z,20.35
2022-07-29T07:59:02.101Z,20.36
2022-07-29T08:01:28.856Z,20.73
2022-07-29T08:03:55.294Z,20.53
2022-07-29T08:06:21.761Z,20.50
2022-07-29T08:08:48.274Z,20.78
2022-07-29T08:11:15.456Z,21.20
2022-07-29T08:13:41.907Z,21.22
2022-07-29T08:16:16.343Z,21.13
2022-07-29T08:18:44.461Z,21.11
2022-07-29T08:21:11.207Z,21.11
2022-07-29T08:23:50.579Z,20.96
2022-07-29T08:26:21.728Z,20.96
2022-07-29T08:28:51.142Z,21.22
2022-07-29T08:31:17.716Z,21.46
2022-07-29T08:33:44.207Z,21.62
2022-07-29T08:36:10.642Z,21.50
2022-07-29T08:38:37.047Z,21.74
2022-07-29T08:41:03.572Z,21.86
2022-07-29T08:43:30.037Z,21.90
2022-07-29T08:45:56.495Z,21.78
2022-07-29T08:48:23.748Z,21.85
2022-07-29T08:50:53.884Z,21.84
2022-07-29T08:53:20.495Z,21.67
2022-07-29T08:55:50.363Z,21.61
2022-07-29T08:58:17.883Z,21.39
2022-07-29T09:00:53.433Z,21.39
2022-07-29T09:03:24.681Z,21.67
2022-07-29T09:05:52.020Z,21.42
2022-07-29T09:08:18.701Z,21.51
2022-07-29T09:10:45.659Z,21.57
2022-07-29T09:13:12.338Z,21.58
2022-07-29T09:15:38.732Z,21.52
2022-07-29T09:18:05.168Z,21.59
2022-07-29T09:20:51.554Z,21.54
2022-07-29T09:23:23.443Z,21.53
2022-07-29T09:25:51.111Z,21.58
2022-07-29T09:28:17.848Z,21.54
2022-07-29T09:30:59.114Z,21.35
2022-07-29T09:33:32.460Z,21.20
2022-07-29T09:36:07.500Z,21.01
2022-07-29T09:38:34.889Z,20.98
2022-07-29T09:41:05.790Z,21.09
2022-07-29T09:43:33.065Z,21.23
2022-07-29T09:46:12.890Z,21.23
2022-07-29T09:48:39.473Z,21.23
2022-07-29T09:51:07.335Z,21.17
2022-07-29T09:53:35.548Z,21.34
2022-07-29T09:56:02.543Z,21.09
2022-07-29T09:58:29.075Z,21.10
2022-07-29T10:00:56.310Z,21.05
2022-07-29T10:03:23.785Z,21.05
2022-07-29T10:06:10.533Z,20.59
2022-07-29T10:08:37.585Z,20.75
2022-07-29T10:11:12.384Z,20.85
2022-07-29T10:13:39.693Z,21.13
2022-07-29T10:16:06.807Z,21.01
2022-07-29T10:18:33.660Z,20.99
2022-07-29T10:21:02.013Z,20.97
2022-07-29T10:23:29.357Z,20.76
2022-07-29T10:26:13.029Z,20.33
2022-07-29T10:28:39.449Z,20.24
2022-07-29T10:31:07.739Z,19.98
2022-07-29T10:33:53.519Z,20.06
2022-07-29T10:36:25.860Z,19.93
2022-07-29T10:39:03.344Z,19.70
2022-07-29T10:41:51.491Z,19.72
2022-07-29T10:44:23.178Z,19.62
2022-07-29T10:46:51.545Z,19.62
2022-07-29T10:49:19.438Z,19.64
2022-07-29T10:52:06.093Z,19.66
2022-07-29T10:54:47.147Z,19.63
2022-07-29T10:57:14.025Z,19.55
2022-07-29T10:59:41.305Z,19.48
2022-07-29T11:02:42.758Z,19.66
2022-07-29T11:05:10.163Z,19.56
2022-07-29T11:07:46.168Z,19.57
2022-07-29T11:10:16.425Z,19.42
2022-07-29T11:12:42.835Z,19.32
2022-07-29T11:15:18.095Z,19.43
2022-07-29T11:17:59.475Z,19.38
2022-07-29T11:20:32.727Z,19.25
2022-07-29T11:22:59.842Z,19.27
2022-07-29T11:25:42.514Z,19.33
2022-07-29T11:28:22.286Z,19.39
2022-07-29T11:30:53.176Z,19.27
2022-07-29T11:33:54.730Z,19.23
2022-07-29T11:36:19.920Z,18.99
2022-07-29T11:39:26.903Z,19.04
2022-07-29T11:42:32.643Z,19.12
2022-07-29T11:45:08.492Z,19.08
2022-07-29T11:47:48.922Z,19.07
2022-07-29T11:50:37.647Z,19.30
2022-07-29T11:53:13.120Z,19.19
2022-07-29T11:55:51.044Z,19.05
2022-07-29T11:58:25.069Z,19.15
2022-07-29T12:00:52.659Z,19.23
2022-07-29T12:03:32.776Z,19.12
2022-07-29T12:06:02.134Z,19.10
2022-07-29T12:08:28.688Z,19.17
2022-07-29T12:10:55.119Z,19.05
2022-07-29T12:13:22.781Z,19.06
2022-07-29T12:16:03.953Z,18.98
2022-07-29T12:18:30.522Z,18.94
2022-07-29T12:21:04.507Z,18.87
2022-07-29T12:23:34.746Z,19.01
2022-07-29T12:26:04.981Z,19.07
2022-07-29T12:28:38.473Z,18.84
2022-07-29T12:31:06.079Z,18.80
2022-07-29T12:33:35.803Z,18.87
2022-07-29T12:36:07.626Z,18.82
2022-07-29T12:38:36.093Z,18.85
2022-07-29T12:41:04.560Z,18.77
2022-07-29T12:43:31.348Z,18.80
2022-07-29T12:45:58.261Z,18.59
2022-07-29T12:48:35.560Z,18.65
2022-07-29T12:51:03.833Z,18.77
2022-07-29T12:53:31.016Z,18.79
2022-07-29T12:56:00.447Z,18.72
2022-07-29T12:58:51.089Z,18.89
2022-07-29T13:01:20.237Z,19.15
2022-07-29T13:03:57.052Z,19.35
2022-07-29T13:06:37.817Z,19.57
2022-07-29T13:09:19.634Z,19.72
2022-07-29T13:11:51.215Z,19.52
2022-07-29T13:14:37.823Z,19.73
2022-07-29T13:17:14.070Z,19.91
2022-07-29T13:19:45.599Z,19.99
2022-07-29T13:22:15.467Z,19.84
2022-07-29T13:24:54.759Z,19.60
2022-07-29T13:27:23.867Z,19.42
2022-07-29T13:29:53.208Z,19.42
2022-07-29T13:32:28.240Z,19.39
2022-07-29T13:35:00.997Z,19.59
2022-07-29T13:37:30.434Z,20.03
2022-07-29T13:39:57.673Z,20.27
2022-07-29T13:42:24.573Z,21.05
2022-07-29T13:44:52.519Z,22.13
2022-07-29T13:47:22.763Z,23.18
2022-07-29T13:49:59.301Z,23.50
2022-07-29T13:52:25.708Z,23.72
2022-07-29T13:54:52.149Z,23.88
2022-07-29T13:57:18.608Z,24.36
2022-07-29T13:59:46.187Z,25.20
2022-07-29T14:02:15.694Z,25.30
2022-07-29T14:04:42.273Z,25.12
2022-07-29T14:07:08.747Z,25.37
2022-07-29T14:09:40.995Z,25.25
2022-07-29T14:12:08.519Z,24.98
2022-07-29T14:14:36.454Z,24.83
2022-07-29T14:17:04.154Z,24.89
2022-07-29T14:19:32.803Z,24.31
2022-07-29T14:21:59.705Z,24.28
2022-07-29T14:24:26.408Z,23.88
2022-07-29T14:26:52.852Z,24.03
2022-07-29T14:29:19.282Z,23.91
2022-07-29T14:31:45.769Z,23.79
2022-07-29T14:34:12.270Z,23.88
2022-07-29T14:36:38.751Z,24.34
2022-07-29T14:39:05.165Z,25.03
2022-07-29T14:41:31.626Z,25.21
2022-07-29T14:44:01.384Z,25.73
2022-07-29T14:46:28.515Z,25.74
2022-07-29T14:48:55.289Z,25.55
2022-07-29T14:51:21.833Z,25.43
2022-07-29T14:53:48.245Z,25.16
2022-07-29T14:56:35.649Z,25.23
2022-07-29T14:59:01.666Z,25.58
2022-07-29T15:01:28.256Z,25.45
2022-07-29T15:03:59.550Z,25.09
2022-07-29T15:06:26.955Z,25.20
2022-07-29T15:08:53.380Z,25.30
2022-07-29T15:11:19.888Z,25.46
2022-07-29T15:13:46.787Z,25.37
2022-07-29T15:16:13.266Z,25.45
2022-07-29T15:18:39.727Z,25.73
2022-07-29T15:21:07.785Z,25.67
2022-07-29T15:23:36.986Z,25.98
2022-07-29T15:26:04.268Z,25.80
2022-07-29T15:28:30.789Z,25.54
2022-07-29T15:30:57.245Z,25.51
2022-07-29T15:33:24.081Z,25.58
2022-07-29T15:35:50.523Z,25.37
2022-07-29T15:38:17.270Z,25.39
2022-07-29T15:40:44.158Z,25.10
2022-07-29T15:43:10.717Z,25.34
2022-07-29T15:45:40.337Z,25.46
2022-07-29T15:48:08.352Z,25.44
2022-07-29T15:50:34.877Z,25.54
2022-07-29T15:53:01.332Z,25.38
2022-07-29T15:55:27.896Z,25.31
2022-07-29T15:57:59.980Z,25.37
2022-07-29T16:00:27.204Z,25.79
2022-07-29T16:02:53.631Z,25.81
2022-07-29T16:05:20.060Z,25.65
2022-07-29T16:07:46.571Z,25.34
2022-07-29T16:10:13.103Z,25.39
2022-07-29T16:12:39.558Z,25.36
2022-07-29T16:15:09.959Z,25.45
2022-07-29T16:17:37.670Z,25.68
2022-07-29T16:20:05.230Z,25.56
2022-07-29T16:22:31.690Z,25.68
2022-07-29T16:24:58.077Z,25.63
2022-07-29T16:27:35.395Z,25.39
2022-07-29T16:30:05.887Z,25.51
2022-07-29T16:32:32.279Z,25.48
2022-07-29T16:34:58.697Z,25.21
2022-07-29T16:37:25.124Z,24.84
2022-07-29T16:39:55.328Z,25.13
2022-07-29T16:42:44.371Z,24.90
2022-07-29T16:45:08.827Z,24.70
2022-07-29T16:47:36.020Z,24.59
2022-07-29T16:50:02.524Z,24.53
2022-07-29T16:52:28.946Z,24.23
2022-07-29T16:54:55.348Z,24.40
2022-07-29T16:57:21.940Z,24.52
2022-07-29T16:59:50.829Z,24.43
2022-07-29T17:02:17.726Z,24.47
2022-07-29T17:04:44.208Z,24.59
2022-07-29T17:07:10.640Z,24.36
2022-07-29T17:09:37.250Z,24.53
2022-07-29T17:12:04.014Z,24.36
2022-07-29T17:14:31.028Z,24.12
2022-07-29T17:17:01.429Z,24.09
2022-07-29T17:19:30.257Z,24.14
2022-07-29T17:22:03.556Z,24.04
2022-07-29T17:24:35.728Z,23.89
2022-07-29T17:27:02.151Z,23.78
2022-07-29T17:29:28.569Z,23.61
2022-07-29T17:31:55.025Z,23.69
2022-07-29T17:34:21.473Z,23.64
2022-07-29T17:36:48.256Z,23.82
2022-07-29T17:39:14.664Z,23.80
2022-07-29T17:41:41.150Z,23.89
2022-07-29T17:44:09.263Z,23.71
2022-07-29T17:46:35.783Z,23.79
2022-07-29T17:49:02.430Z,23.62
2022-07-29T17:51:28.861Z,23.72
2022-07-29T17:53:55.360Z,23.40
2022-07-29T17:56:22.359Z,23.41
2022-07-29T17:58:48.770Z,23.15
2022-07-29T18:01:15.516Z,23.17
2022-07-29T18:03:42.583Z,23.17
2022-07-29T18:06:10.435Z,23.13
2022-07-29T18:08:37.298Z,23.11
2022-07-29T18:11:03.699Z,23.12
2022-07-29T18:13:30.150Z,22.96
2022-07-29T18:16:00.326Z,23.07
2022-07-29T18:18:27.244Z,23.10
2022-07-29T18:20:53.762Z,23.00
2022-07-29T18:23:20.186Z,22.99
2022-07-29T18:25:46.700Z,22.82
2022-07-29T18:28:13.525Z,22.75
2022-07-29T18:30:39.963Z,22.78
2022-07-29T18:33:23.937Z,22.70
2022-07-29T18:35:51.751Z,22.76
2022-07-29T18:38:18.574Z,22.67
2022-07-29T18:40:45.810Z,22.58
2022-07-29T18:43:13.028Z,22.66
2022-07-29T18:45:39.740Z,22.65
2022-07-29T18:48:08.317Z,22.61
2022-07-29T18:50:39.537Z,22.54
2022-07-29T18:53:06.073Z,22.39
2022-07-29T18:55:32.740Z,22.40
2022-07-29T18:57:59.155Z,22.15
2022-07-29T19:00:26.846Z,22.18
2022-07-29T19:02:53.769Z,21.98
2022-07-29T19:05:20.908Z,22.04
2022-07-29T19:07:47.326Z,21.94
2022-07-29T19:10:13.954Z,21.67
2022-07-29T19:12:40.400Z,21.61
2022-07-29T19:15:07.952Z,21.51
2022-07-29T19:17:34.429Z,21.40
2022-07-29T19:20:00.875Z,21.35
2022-07-29T19:22:27.700Z,21.23
2022-07-29T19:24:54.115Z,21.09
2022-07-29T19:27:20.515Z,21.00
2022-07-29T19:29:46.929Z,20.98
2022-07-29T19:32:14.421Z,21.03
2022-07-29T19:35:10.283Z,20.96
2022-07-29T19:37:37.242Z,20.85
2022-07-29T19:40:04.221Z,20.94
2022-07-29T19:42:30.631Z,20.89
2022-07-29T19:44:57.053Z,20.81
2022-07-29T19:47:23.466Z,20.96
2022-07-29T19:49:49.931Z,20.84
2022-07-29T19:52:16.389Z,20.76
2022-07-29T19:54:43.040Z,20.61
2022-07-29T19:57:09.663Z,20.59
2022-07-29T19:59:36.087Z,20.39
2022-07-29T20:02:02.649Z,20.28
2022-07-29T20:04:29.382Z,20.18
2022-07-29T20:07:01.206Z,20.26
2022-07-29T20:09:28.180Z,20.32
2022-07-29T20:11:54.648Z,20.23
2022-07-29T20:14:21.353Z,20.12
2022-07-29T20:16:47.794Z,20.15
2022-07-29T20:19:14.234Z,20.25
2022-07-29T20:21:40.623Z,20.07
2022-07-29T20:24:07.524Z,20.11
2022-07-29T20:26:34.022Z,19.86
2022-07-29T20:29:00.507Z,19.71
2022-07-29T20:31:27.542Z,19.44
2022-07-29T20:33:53.976Z,19.23
2022-07-29T20:36:20.494Z,19.15
2022-07-29T20:38:46.892Z,19.06
2022-07-29T20:41:14.013Z,18.96
2022-07-29T20:43:40.870Z,19.10
2022-07-29T20:46:07.358Z,19.18
2022-07-29T20:48:33.813Z,19.23
2022-07-29T20:51:00.236Z,19.25
2022-07-29T20:53:26.697Z,19.09
2022-07-29T20:55:53.388Z,18.94
2022-07-29T20:58:19.852Z,18.81
2022-07-29T21:00:46.441Z,18.69
2022-07-29T21:03:13.024Z,18.71
2022-07-29T21:05:43.812Z,18.68
2022-07-29T21:08:11.324Z,18.68
2022-07-29T21:10:37.813Z,18.70
2022-07-29T21:13:04.211Z,18.86
2022-07-29T21:15:30.807Z,18.83
2022-07-29T21:18:02.213Z,18.98
2022-07-29T21:20:29.432Z,18.97
2022-07-29T21:22:56.312Z,18.72
2022-07-29T21:25:23.299Z,18.72
2022-07-29T21:28:08.893Z,18.59
2022-07-29T21:30:35.835Z,18.48
2022-07-29T21:33:03.348Z,18.44
2022-07-29T21:35:35.957Z,18.50
2022-07-29T21:38:16.849Z,18.67
2022-07-29T21:40:44.314Z,18.59
2022-07-29T21:43:10.749Z,18.55
2022-07-29T21:45:37.344Z,18.55
2022-07-29T21:48:04.962Z,18.53
2022-07-29T21:50:31.542Z,18.56
2022-07-29T21:52:57.969Z,18.64
2022-07-29T21:55:26.661Z,18.61
2022-07-29T21:57:54.524Z,18.59
2022-07-29T22:00:21.236Z,18.49
2022-07-29T22:02:48.478Z,18.45
2022-07-29T22:05:14.929Z,18.46
2022-07-29T22:07:55.799Z,18.47
2022-07-29T22:10:24.670Z,18.28
2022-07-29T22:12:54.999Z,18.37
2022-07-29T22:15:21.821Z,18.29
2022-07-29T22:17:48.309Z,18.27
2022-07-29T22:20:14.849Z,18.17
2022-07-29T22:22:41.534Z,17.99
2022-07-29T22:25:08.589Z,17.88
2022-07-29T22:27:35.666Z,17.94
2022-07-29T22:30:02.131Z,18.02
2022-07-29T22:32:28.588Z,18.14
2022-07-29T22:34:55.015Z,18.03
2022-07-29T22:37:21.441Z,18.09
2022-07-29T22:39:47.858Z,18.05
2022-07-29T22:42:14.275Z,18.09
2022-07-29T22:44:40.734Z,18.08
2022-07-29T22:47:07.205Z,18.16
2022-07-29T22:49:33.614Z,18.23
2022-07-29T22:52:00.375Z,18.28
2022-07-29T22:54:26.998Z,18.39
2022-07-29T22:56:53.608Z,18.41
2022-07-29T22:59:20.029Z,18.23
2022-07-29T23:01:46.808Z,18.05
2022-07-29T23:04:13.340Z,17.98
2022-07-29T23:06:39.816Z,17.90
2022-07-29T23:09:06.256Z,17.90
2022-07-29T23:11:32.678Z,18.05
2022-07-29T23:13:59.085Z,18.12
2022-07-29T23:16:26.469Z,18.27
2022-07-29T23:18:53.915Z,18.07
2022-07-29T23:21:20.899Z,18.07
2022-07-29T23:23:48.406Z,17.89
2022-07-29T23:26:16.723Z,17.84
2022-07-29T23:28:46.298Z,17.75
2022-07-29T23:31:13.492Z,17.66
2022-07-29T23:33:40.925Z,17.77
2022-07-29T23:36:07.396Z,17.99
2022-07-29T23:38:33.811Z,17.85
2022-07-29T23:41:01.670Z,17.81
2022-07-29T23:43:28.364Z,17.68
2022-07-29T23:45:55.966Z,17.70
2022-07-29T23:48:24.683Z,17.67
2022-07-29T23:50:51.081Z,17.67
2022-07-29T23:53:17.605Z,17.66
2022-07-29T23:55:44.234Z,17.60
2022-07-29T23:58:10.751Z,17.70
